Time;durP1;ratioP1;P1;durP2;ratioP2;P2;SDS_P1;SDS_P2;PMS_P1;PMS_P2;Temp;Humidity;BMP_temperature;BMP_pressure;BME280_temperature;BME280_humidity;BME280_pressure;Samples;Min_cycle;Max_cycle;Signal;HPM_P1;HPM_P2
2022/12/29 15:55:38;;;;;;;2.67;1.30;;;12.80;95.40;;;;;;21067604;27;21131;-73
2022/12/29 16:05:40;;;;;;;1.37;1.20;;;11.90;95.80;;;;;;21073750;28;20211;-72
2022/12/29 16:15:46;;;;;;;2.07;1.30;;;11.50;96.40;;;;;;21069984;28;20260;-75
2022/12/29 16:25:47;;;;;;;3.93;1.70;;;11.20;96.90;;;;;;21065949;28;20241;-70
2022/12/29 16:35:49;;;;;;;3.13;1.77;;;11.10;97.40;;;;;;21070083;28;20598;-70
2022/12/29 16:45:51;;;;;;;3.50;1.83;;;11.00;97.70;;;;;;21063921;28;20282;-70
2022/12/29 16:55:54;;;;;;;2.60;1.60;;;11.00;97.90;;;;;;21063452;28;20208;-72
2022/12/29 17:05:56;;;;;;;1.37;1.10;;;10.80;98.00;;;;;;21011938;28;20233;-70
2022/12/29 17:15:58;;;;;;;3.27;1.50;;;10.80;98.40;;;;;;21006122;28;20576;-68
2022/12/29 17:26:01;;;;;;;4.80;1.20;;;10.60;98.40;;;;;;21003736;28;20230;-69
2022/12/29 17:36:02;;;;;;;1.93;1.20;;;10.70;98.50;;;;;;21004711;28;20208;-70
2022/12/29 17:46:06;;;;;;;3.93;2.03;;;10.60;98.50;;;;;;21003340;28;20230;-70
2022/12/29 17:56:09;;;;;;;4.53;1.47;;;10.50;98.70;;;;;;21002612;28;20269;-69
2022/12/29 18:06:11;;;;;;;2.43;1.63;;;10.50;98.90;;;;;;21002443;28;20633;-69
2022/12/29 18:16:13;;;;;;;2.23;1.70;;;10.50;99.00;;;;;;20988110;28;20212;-74
2022/12/29 18:26:23;;;;;;;2.17;1.47;;;10.50;98.90;;;;;;20919268;28;20322;-69
2022/12/29 18:36:28;;;;;;;2.53;1.50;;;10.50;98.80;;;;;;20916469;28;20211;-66
2022/12/29 18:46:30;;;;;;;3.90;1.50;;;10.60;98.80;;;;;;20915721;28;20302;-69
2022/12/29 18:56:32;;;;;;;4.77;1.40;;;10.60;98.80;;;;;;20915386;28;20306;-72
2022/12/29 19:06:33;;;;;;;3.27;1.60;;;10.60;98.80;;;;;;20914879;28;20229;-68
2022/12/29 19:16:35;;;;;;;8.40;2.30;;;10.60;99.00;;;;;;20914111;28;20210;-69
2022/12/29 19:26:39;;;;;;;2.73;1.97;;;10.70;99.00;;;;;;20913250;28;20241;-71
2022/12/29 19:36:41;;;;;;;2.77;2.20;;;10.80;99.20;;;;;;20946121;28;20554;-70
2022/12/29 19:46:43;;;;;;;6.27;3.00;;;10.70;99.40;;;;;;20991830;28;20299;-66
2022/12/29 19:56:45;;;;;;;4.83;2.90;;;10.80;99.50;;;;;;20950776;28;20221;-71
2022/12/29 20:06:47;;;;;;;4.00;3.13;;;10.80;99.50;;;;;;20913834;28;20311;-72
2022/12/29 20:16:48;;;;;;;6.87;3.10;;;10.70;99.50;;;;;;20953744;28;20657;-75
2022/12/29 20:27:12;;;;;;;4.60;2.60;;;10.70;99.40;;;;;;20992994;28;20244;-70
2022/12/29 20:37:14;;;;;;;6.13;2.57;;;10.70;99.40;;;;;;20999170;28;20206;-70
2022/12/29 20:47:16;;;;;;;4.00;2.17;;;10.60;99.50;;;;;;21005527;28;20597;-70
2022/12/29 20:57:17;;;;;;;5.83;2.30;;;10.60;99.80;;;;;;21005135;28;20218;-70
2022/12/29 21:07:19;;;;;;;4.87;2.27;;;10.60;99.60;;;;;;21004625;28;20268;-71
2022/12/29 21:17:21;;;;;;;6.13;2.20;;;10.60;99.90;;;;;;21003759;28;20214;-70
2022/12/29 21:27:22;;;;;;;5.73;2.33;;;10.60;99.80;;;;;;21002960;28;20720;-70
2022/12/29 21:37:24;;;;;;;5.50;2.60;;;10.50;99.70;;;;;;21002223;28;20282;-70
2022/12/29 21:48:19;;;;;;;6.97;2.67;;;10.60;99.90;;;;;;21000792;28;20233;-70
2022/12/29 22:18:28;;;;;;;5.93;2.70;;;10.60;99.90;;;;;;20999582;28;20275;-70
2022/12/29 22:28:30;;;;;;;8.90;3.27;;;10.60;99.90;;;;;;21000447;28;20237;-70
2022/12/29 22:38:31;;;;;;;8.00;3.20;;;10.50;99.90;;;;;;20999958;28;20213;-70
2022/12/29 22:48:34;;;;;;;6.70;3.03;;;10.60;99.90;;;;;;20998379;28;20242;-69
2022/12/29 22:58:40;;;;;;;10.20;3.03;;;10.50;99.90;;;;;;20997282;28;20279;-70
2022/12/29 23:08:42;;;;;;;9.63;3.13;;;10.50;99.90;;;;;;20997587;28;20238;-70
2022/12/29 23:18:45;;;;;;;5.13;3.00;;;10.60;99.90;;;;;;20996790;28;20210;-70
2022/12/29 23:28:48;;;;;;;8.73;3.47;;;10.50;99.90;;;;;;20996018;28;20231;-70
2022/12/29 23:38:56;;;;;;;7.47;3.07;;;10.50;99.90;;;;;;20996697;28;20210;-70
2022/12/29 23:48:58;;;;;;;4.33;2.50;;;10.50;99.90;;;;;;20996776;28;20307;-69
2022/12/29 23:59:03;;;;;;;8.87;2.80;;;10.50;99.90;;;;;;20995281;28;20628;-70
